Time;durP1;ratioP1;P1;durP2;ratioP2;P2;SDS_P1;SDS_P2;PMS_P1;PMS_P2;Temp;Humidity;BMP_temperature;BMP_pressure;BME280_temperature;BME280_humidity;BME280_pressure;Samples;Min_cycle;Max_cycle;Signal;HPM_P1;HPM_P2
2021/01/23 00:00:54;;;;;;;10.70;6.72;;;;;;;6.22;61.84;94411.06;4137686;28;20116;-82
2021/01/23 00:02:55;;;;;;;17.40;6.90;;;;;;;6.21;61.85;94414.59;4133830;28;20125;-84
2021/01/23 00:04:57;;;;;;;11.90;7.07;;;;;;;6.20;62.26;94399.16;4140330;28;20054;-80
2021/01/23 00:06:58;;;;;;;11.98;7.20;;;;;;;5.83;63.31;94379.03;4138776;28;20060;-82
2021/01/23 00:08:59;;;;;;;12.85;7.78;;;;;;;5.99;62.78;94388.91;4139683;28;20128;-81
2021/01/23 00:11:00;;;;;;;13.60;7.68;;;;;;;6.08;62.70;94391.50;4136071;28;20050;-84
2021/01/23 00:13:03;;;;;;;10.23;6.75;;;;;;;6.17;61.85;94402.03;4130482;28;20047;-82
2021/01/23 00:15:05;;;;;;;11.05;6.38;;;;;;;6.22;61.59;94402.44;4138561;28;20050;-81
2021/01/23 00:17:06;;;;;;;10.63;6.78;;;;;;;6.28;61.98;94417.47;4139710;28;20046;-82
2021/01/23 00:19:08;;;;;;;12.68;6.60;;;;;;;6.33;61.58;94412.69;4138360;28;20046;-85
2021/01/23 00:21:09;;;;;;;10.80;6.78;;;;;;;6.13;62.13;94394.50;4145653;28;20046;-84
2021/01/23 00:23:10;;;;;;;10.80;6.93;;;;;;;6.11;62.10;94385.22;4137041;28;20056;-83
2021/01/23 00:25:11;;;;;;;9.55;6.43;;;;;;;6.11;62.32;94386.03;4135235;28;20057;-83
2021/01/23 00:27:13;;;;;;;13.68;6.43;;;;;;;6.02;61.92;94394.63;4119856;28;20055;-82
2021/01/23 00:29:39;;;;;;;9.57;5.97;;;;;;;5.97;62.50;94396.03;4122421;28;20500;-84
2021/01/23 00:31:41;;;;;;;12.05;6.72;;;;;;;6.05;62.24;94388.38;4135126;28;20085;-83
2021/01/23 00:33:42;;;;;;;11.90;6.43;;;;;;;6.12;62.18;94405.84;4133802;28;20078;-84
2021/01/23 00:35:44;;;;;;;11.27;6.50;;;;;;;6.17;62.23;94405.44;4134320;28;20058;-83
2021/01/23 00:37:47;;;;;;;10.38;6.75;;;;;;;6.02;62.45;94381.63;4134570;28;20055;-82
2021/01/23 00:39:48;;;;;;;;;;;;;;;6.07;62.23;94386.44;4122424;28;20063;-82
2021/01/23 00:41:50;;;;;;;11.30;6.53;;;;;;;6.11;62.36;94396.44;4133281;28;19927;-83
2021/01/23 00:43:51;;;;;;;9.80;6.10;;;;;;;6.15;62.25;94376.16;4134994;28;20061;-82
2021/01/23 00:45:52;;;;;;;9.82;5.63;;;;;;;6.14;62.13;94392.72;4132067;28;20507;-80
2021/01/23 00:47:53;;;;;;;13.52;6.53;;;;;;;6.15;62.51;94409.97;4136602;28;20050;-83
2021/01/23 00:49:54;;;;;;;9.65;6.03;;;;;;;6.01;63.04;94387.81;4133303;28;20057;-83
2021/01/23 00:51:56;;;;;;;11.65;5.70;;;;;;;5.87;62.82;94383.00;4133984;28;20050;-83
2021/01/23 00:53:57;;;;;;;11.52;6.95;;;;;;;5.82;63.14;94372.19;4133556;28;20491;-82
2021/01/23 00:55:58;;;;;;;9.48;6.13;;;;;;;5.86;62.43;94378.78;4126641;28;20070;-81
2021/01/23 00:57:59;;;;;;;10.98;6.10;;;;;;;5.89;63.24;94376.72;4126733;28;20050;-82
2021/01/23 01:00:00;;;;;;;9.88;5.53;;;;;;;6.00;62.96;94390.53;4146662;28;20046;-84
2021/01/23 01:02:02;;;;;;;12.07;6.05;;;;;;;6.07;62.26;94394.25;4151855;28;20049;-84
2021/01/23 01:04:04;;;;;;;9.88;6.72;;;;;;;5.80;63.34;94359.34;4120286;28;20142;-83
2021/01/23 01:06:05;;;;;;;7.60;5.80;;;;;;;5.90;63.29;94395.75;4136821;28;20050;-81
2021/01/23 01:08:07;;;;;;;9.63;5.95;;;;;;;5.88;62.79;94361.25;4119700;28;20058;-82
2021/01/23 01:10:09;;;;;;;9.77;6.10;;;;;;;5.69;63.70;94365.50;4133453;28;20133;-82
2021/01/23 01:12:10;;;;;;;10.82;5.90;;;;;;;5.81;63.48;94380.94;4133849;28;20053;-82
2021/01/23 01:14:11;;;;;;;12.10;6.15;;;;;;;5.87;63.08;94376.03;4135451;28;20116;-83
2021/01/23 01:16:13;;;;;;;9.35;6.03;;;;;;;5.91;63.26;94372.19;4134582;28;20431;-83
2021/01/23 01:18:14;;;;;;;10.80;6.47;;;;;;;5.99;62.62;94379.31;4133775;28;20078;-83
2021/01/23 01:20:16;;;;;;;9.73;6.50;;;;;;;5.98;62.25;94374.25;4134858;28;20078;-81
2021/01/23 01:22:17;;;;;;;11.68;6.38;;;;;;;5.93;62.66;94367.66;4134339;28;20137;-82
2021/01/23 01:24:18;;;;;;;10.45;6.30;;;;;;;5.99;63.31;94366.34;4134934;28;20105;-84
2021/01/23 01:26:19;;;;;;;11.32;6.47;;;;;;;6.04;62.85;94376.31;4134430;28;20052;-81
2021/01/23 01:28:20;;;;;;;10.52;6.15;;;;;;;5.71;63.62;94348.00;4133505;28;20498;-86
2021/01/23 01:30:22;;;;;;;8.95;6.00;;;;;;;5.73;63.37;94361.66;4133545;28;20129;-81
2021/01/23 01:32:23;;;;;;;8.57;6.25;;;;;;;5.70;64.02;94371.50;4134626;28;20054;-83
2021/01/23 01:34:24;;;;;;;10.65;6.30;;;;;;;5.73;63.02;94358.25;4133181;28;20406;-82
2021/01/23 01:36:26;;;;;;;9.43;6.60;;;;;;;5.73;62.84;94358.25;4135124;28;20038;-81
2021/01/23 01:38:27;;;;;;;12.25;7.03;;;;;;;5.27;64.54;94341.56;4128847;28;20577;-84
2021/01/23 01:40:28;;;;;;;10.82;6.70;;;;;;;5.36;64.53;94350.34;4133191;28;20058;-82
2021/01/23 01:42:29;;;;;;;9.10;6.68;;;;;;;5.47;64.64;94337.22;4134234;28;20050;-83
2021/01/23 01:44:31;;;;;;;10.75;6.43;;;;;;;5.54;63.72;94317.50;4134908;28;20514;-83
2021/01/23 01:46:32;;;;;;;10.38;6.28;;;;;;;5.46;64.50;94325.16;4134310;28;20054;-82
2021/01/23 01:48:34;;;;;;;10.27;6.35;;;;;;;5.49;63.84;94336.09;4135158;28;20046;-82
2021/01/23 01:50:35;;;;;;;9.38;6.05;;;;;;;5.58;64.24;94342.25;4138371;28;20054;-83
2021/01/23 01:52:37;;;;;;;12.48;7.07;;;;;;;5.62;63.49;94350.59;4136140;28;20050;-83
2021/01/23 01:54:38;;;;;;;12.10;6.82;;;;;;;5.57;64.20;94345.81;4137915;28;20537;-81
2021/01/23 01:56:41;;;;;;;10.63;6.85;;;;;;;5.60;64.13;94350.75;4133904;28;20089;-82
2021/01/23 01:58:42;;;;;;;11.82;6.05;;;;;;;5.57;63.55;94348.44;4135366;28;20042;-82
2021/01/23 02:00:44;;;;;;;9.65;6.25;;;;;;;5.60;63.81;94348.13;4136991;28;20105;-83
2021/01/23 02:03:26;;;;;;;10.57;6.35;;;;;;;5.58;63.39;94334.47;4126836;28;20047;-81
2021/01/23 02:05:42;;;;;;;10.48;6.90;;;;;;;5.55;64.30;94332.16;4091704;28;20051;-83
2021/01/23 02:07:50;;;;;;;10.02;6.85;;;;;;;5.51;64.36;94328.19;4089089;29;20051;-83
2021/01/23 02:09:54;;;;;;;10.35;6.53;;;;;;;5.33;64.46;94310.69;4103661;28;20051;-81
2021/01/23 02:12:11;;;;;;;9.82;7.28;;;;;;;4.98;65.75;94316.38;4127245;28;20137;-82
2021/01/23 02:14:29;;;;;;;11.35;6.82;;;;;;;5.06;65.47;94334.72;4134496;28;20057;-82
2021/01/23 02:16:34;;;;;;;9.23;6.40;;;;;;;5.19;65.88;94328.44;4135406;28;20050;-83
2021/01/23 02:18:42;;;;;;;11.55;7.22;;;;;;;5.28;65.44;94330.22;4134680;28;20138;-83
2021/01/23 02:21:05;;;;;;;12.98;7.53;;;;;;;5.27;65.31;94326.81;4126870;28;20114;-83
2021/01/23 02:23:15;;;;;;;11.95;6.85;;;;;;;5.37;64.91;94336.38;4134703;28;20042;-83
2021/01/23 02:25:17;;;;;;;11.85;7.15;;;;;;;5.33;64.97;94313.28;4134596;28;20441;-82
2021/01/23 02:27:45;;;;;;;11.15;7.47;;;;;;;5.23;65.27;94302.06;4135199;28;20239;-82
2021/01/23 02:30:03;;;;;;;13.32;7.10;;;;;;;5.29;64.65;94291.13;4134554;28;20050;-83
2021/01/23 02:32:06;;;;;;;14.13;7.65;;;;;;;5.29;64.83;94295.50;4134325;28;20120;-83
2021/01/23 02:34:10;;;;;;;11.45;7.63;;;;;;;5.32;64.50;94311.63;4134807;28;20054;-82
2021/01/23 02:36:12;;;;;;;12.98;6.72;;;;;;;4.96;66.36;94287.16;4131870;28;20097;-84
2021/01/23 02:38:15;;;;;;;12.80;8.18;;;;;;;4.95;66.63;94272.53;4148043;28;20108;-82
2021/01/23 02:40:16;;;;;;;10.88;6.68;;;;;;;5.05;66.20;94288.91;4136616;28;20053;-82
2021/01/23 02:42:18;;;;;;;11.52;6.53;;;;;;;5.07;65.78;94291.38;4134453;28;20064;-82
2021/01/23 02:44:20;;;;;;;12.25;7.07;;;;;;;5.15;65.73;94288.13;4130439;28;20050;-81
2021/01/23 02:46:22;;;;;;;11.80;6.70;;;;;;;5.26;65.71;94291.41;4117451;28;20051;-84
2021/01/23 02:48:23;;;;;;;10.38;7.03;;;;;;;5.34;65.37;94291.53;4136202;28;20050;-82
2021/01/23 02:50:26;;;;;;;13.63;7.43;;;;;;;5.39;64.82;94277.31;4135810;28;20057;-83
2021/01/23 02:52:35;;;;;;;13.30;7.25;;;;;;;5.43;65.05;94299.47;4143024;28;20050;-83
2021/01/23 02:54:39;;;;;;;11.18;6.97;;;;;;;5.45;64.94;94308.75;4140965;28;20050;-82
2021/01/23 02:56:42;;;;;;;12.47;8.07;;;;;;;5.41;64.92;94316.97;4138933;28;20482;-82
2021/01/23 02:58:44;;;;;;;11.85;7.60;;;;;;;5.45;64.51;94294.97;4129158;28;20270;-81
2021/01/23 03:00:49;;;;;;;10.73;7.55;;;;;;;5.49;64.58;94299.72;4138068;28;20130;-84
2021/01/23 03:02:55;;;;;;;10.50;6.90;;;;;;;5.54;64.77;94307.13;4135076;28;20581;-82
2021/01/23 03:04:59;;;;;;;12.32;7.30;;;;;;;5.49;64.73;94299.72;4134999;28;20455;-82
2021/01/23 03:07:01;;;;;;;10.88;7.05;;;;;;;5.36;64.82;94303.59;4127536;28;20051;-83
2021/01/23 03:09:19;;;;;;;13.15;7.60;;;;;;;5.31;64.99;94270.19;4129408;28;20050;-82
2021/01/23 03:11:20;;;;;;;11.57;6.75;;;;;;;5.19;65.26;94261.75;4120613;28;20057;-83
2021/01/23 03:13:21;;;;;;;18.00;8.32;;;;;;;5.21;65.24;94253.81;4139199;28;20045;-83
2021/01/23 03:15:22;;;;;;;11.10;6.22;;;;;;;5.29;65.21;94259.13;4145280;28;20462;-83
2021/01/23 03:17:24;;;;;;;10.73;6.07;;;;;;;5.30;64.85;94259.00;4135593;28;20046;-84
2021/01/23 03:19:25;;;;;;;12.00;6.15;;;;;;;5.28;64.68;94265.28;4134063;28;20422;-84
2021/01/23 03:21:26;;;;;;;8.88;6.35;;;;;;;5.30;64.85;94279.78;4136653;28;20054;-82
2021/01/23 03:23:27;;;;;;;10.00;6.22;;;;;;;5.34;64.77;94291.53;4136832;28;20121;-82
2021/01/23 03:25:29;;;;;;;10.05;6.78;;;;;;;5.40;64.79;94274.59;4135487;28;20050;-80
2021/01/23 03:27:30;;;;;;;11.48;6.57;;;;;;;5.32;65.42;94272.66;4134085;28;20134;-83
2021/01/23 03:29:31;;;;;;;13.13;6.72;;;;;;;5.15;65.81;94259.56;4135442;28;20579;-82
2021/01/23 03:31:34;;;;;;;11.00;6.07;;;;;;;5.12;66.00;94265.84;4133868;28;20052;-83
2021/01/23 03:33:35;;;;;;;10.07;6.57;;;;;;;5.19;65.61;94268.72;4118909;28;20047;-82
2021/01/23 03:35:37;;;;;;;12.45;6.32;;;;;;;5.29;65.72;94267.75;4108748;28;20051;-83
2021/01/23 03:37:39;;;;;;;11.77;6.55;;;;;;;5.21;65.27;94254.63;4132783;28;20060;-83
2021/01/23 03:39:40;;;;;;;9.77;6.05;;;;;;;5.20;65.68;94246.97;4133242;28;20527;-82
2021/01/23 03:41:41;;;;;;;8.65;6.25;;;;;;;5.32;65.03;94253.69;4130079;28;20578;-82
2021/01/23 03:43:42;;;;;;;12.82;6.18;;;;;;;5.42;64.39;94251.91;4136571;28;20558;-82
2021/01/23 03:45:43;;;;;;;10.75;6.25;;;;;;;5.47;64.34;94247.09;4119109;28;20051;-82
2021/01/23 03:47:44;;;;;;;8.20;5.93;;;;;;;5.56;64.84;94252.41;4137727;28;20054;-83
2021/01/23 03:49:46;;;;;;;9.30;6.25;;;;;;;5.59;64.88;94242.53;4144007;28;20089;-83
2021/01/23 03:51:47;;;;;;;10.60;6.43;;;;;;;5.62;64.29;94255.28;4147671;28;20054;-82
2021/01/23 03:53:48;;;;;;;11.27;6.75;;;;;;;5.63;64.11;94261.28;4141349;28;20054;-82
2021/01/23 03:55:50;;;;;;;11.57;7.85;;;;;;;5.60;63.73;94262.38;4139221;28;20061;-83
2021/01/23 03:57:51;;;;;;;10.80;7.78;;;;;;;5.50;63.93;94256.38;4143876;28;20098;-84
2021/01/23 03:59:52;;;;;;;9.95;7.13;;;;;;;5.51;64.07;94248.47;4141302;28;20054;-84
2021/01/23 04:01:53;;;;;;;14.27;8.27;;;;;;;5.54;64.29;94248.16;4137790;28;20426;-83
2021/01/23 04:03:55;;;;;;;11.68;7.35;;;;;;;5.40;64.46;94256.41;4130577;28;20054;-82
2021/01/23 04:05:56;;;;;;;11.65;6.85;;;;;;;5.25;65.39;94268.19;4133282;28;20076;-83
2021/01/23 04:07:57;;;;;;;15.20;6.40;;;;;;;5.24;65.43;94253.53;4129808;28;20047;-70
2021/01/23 04:09:58;;;;;;;10.48;7.25;;;;;;;5.33;64.87;94255.31;4131565;28;20058;-70
2021/01/23 04:12:05;;;;;;;12.05;8.05;;;;;;;5.38;64.91;94253.13;4130549;28;20594;-71
2021/01/23 04:14:06;;;;;;;11.65;8.07;;;;;;;5.36;65.43;94247.25;4129533;28;20088;-71
2021/01/23 04:16:08;;;;;;;10.10;6.93;;;;;;;5.43;64.79;94269.09;4120881;28;20428;-71
2021/01/23 04:18:09;;;;;;;12.50;7.50;;;;;;;5.45;64.70;94263.78;4125031;28;20057;-70
2021/01/23 04:20:11;;;;;;;12.38;7.15;;;;;;;5.42;64.36;94261.44;4129723;28;20055;-82
2021/01/23 04:22:12;;;;;;;11.52;7.63;;;;;;;5.47;65.08;94267.88;4136002;28;20113;-70
2021/01/23 04:24:15;;;;;;;10.75;7.40;;;;;;;5.54;64.65;94271.53;4119407;28;20042;-71
2021/01/23 04:26:16;;;;;;;9.95;6.68;;;;;;;5.59;64.59;94271.13;4123952;28;20079;-71
2021/01/23 04:28:29;;;;;;;9.70;6.93;;;;;;;5.44;64.67;94256.94;4124527;28;20050;-71
2021/01/23 04:30:31;;;;;;;10.13;7.13;;;;;;;5.49;65.34;94270.34;4131013;28;20406;-84
2021/01/23 04:32:32;;;;;;;9.93;7.53;;;;;;;5.55;64.42;94267.19;4132895;28;20487;-84
2021/01/23 04:34:33;;;;;;;12.20;7.35;;;;;;;5.60;64.72;94259.78;4118853;28;20047;-84
2021/01/23 04:36:34;;;;;;;13.55;8.07;;;;;;;5.62;64.50;94263.06;4126406;28;20491;-82
2021/01/23 04:38:36;;;;;;;11.57;7.90;;;;;;;5.56;64.88;94248.03;4122541;28;20086;-82
2021/01/23 04:40:38;;;;;;;11.82;7.57;;;;;;;5.43;64.98;94247.50;4121787;28;20510;-83
2021/01/23 04:42:43;;;;;;;12.73;7.90;;;;;;;5.44;64.42;94262.97;4133297;28;20448;-82
2021/01/23 04:44:44;;;;;;;11.05;7.70;;;;;;;5.51;65.09;94253.66;4133534;28;20081;-82
2021/01/23 04:46:45;;;;;;;11.63;7.53;;;;;;;5.56;64.99;94253.22;4134009;28;20051;-83
2021/01/23 04:48:48;;;;;;;12.77;7.40;;;;;;;5.64;64.10;94257.75;4125653;28;20085;-83
2021/01/23 04:50:49;;;;;;;12.45;7.97;;;;;;;5.64;64.35;94248.16;4133044;28;20109;-84
2021/01/23 04:52:50;;;;;;;11.98;8.00;;;;;;;5.65;63.96;94257.59;4132266;28;20471;-82
2021/01/23 04:54:52;;;;;;;14.52;9.90;;;;;;;5.67;63.83;94255.66;4132280;28;20557;-84
2021/01/23 04:56:53;;;;;;;15.00;10.20;;;;;;;5.67;64.35;94250.47;4130928;28;20051;-83
2021/01/23 04:58:55;;;;;;;15.60;9.55;;;;;;;5.67;64.12;94253.06;4124902;28;20061;-83
2021/01/23 05:00:56;;;;;;;13.07;8.60;;;;;;;5.65;64.50;94256.78;4125023;28;20051;-82
2021/01/23 05:02:58;;;;;;;12.07;8.35;;;;;;;5.53;64.60;94248.31;4129215;28;20054;-82
2021/01/23 05:05:02;;;;;;;14.77;9.90;;;;;;;5.42;65.04;94240.66;4135193;28;20487;-83
2021/01/23 05:07:03;;;;;;;17.52;10.38;;;;;;;5.43;64.74;94245.72;4133462;28;20212;-83
2021/01/23 05:09:04;;;;;;;12.45;9.57;;;;;;;5.45;65.42;94235.22;4135218;28;20404;-83
2021/01/23 05:11:05;;;;;;;15.40;8.82;;;;;;;5.54;64.85;94249.94;4132347;28;20495;-83
2021/01/23 05:13:14;;;;;;;14.02;9.15;;;;;;;5.55;64.57;94236.00;4132603;28;20074;-83
2021/01/23 05:15:27;;;;;;;13.32;10.05;;;;;;;5.56;64.61;94237.63;4132093;28;20054;-83
2021/01/23 05:17:28;;;;;;;15.60;9.32;;;;;;;5.59;64.37;94236.53;4134620;28;20050;-84
2021/01/23 05:19:42;;;;;;;14.57;9.43;;;;;;;5.44;64.89;94237.00;4116417;28;20055;-82
2021/01/23 05:21:59;;;;;;;13.75;8.57;;;;;;;5.36;64.82;94223.06;4129780;28;20050;-83
2021/01/23 05:24:05;;;;;;;18.58;11.15;;;;;;;5.41;64.87;94223.44;4121098;28;20064;-83
2021/01/23 05:26:06;;;;;;;13.77;9.32;;;;;;;5.40;65.58;94234.78;4133052;28;20116;-83
2021/01/23 05:28:10;;;;;;;11.73;8.70;;;;;;;5.43;65.29;94227.53;4136256;28;20055;-84
2021/01/23 05:30:12;;;;;;;14.50;8.35;;;;;;;5.47;64.94;94241.91;4134702;28;20065;-83
2021/01/23 05:32:14;;;;;;;12.45;8.57;;;;;;;5.34;65.69;94213.63;4133436;28;20055;-84
2021/01/23 05:34:32;;;;;;;12.90;8.35;;;;;;;5.30;65.42;94220.03;4130887;28;20511;-82
2021/01/23 05:36:40;;;;;;;12.18;7.80;;;;;;;5.42;65.58;94215.53;4118922;28;20054;-83
2021/01/23 05:38:45;;;;;;;13.20;8.60;;;;;;;5.49;64.59;94215.78;4133869;28;20089;-82
2021/01/23 05:40:47;;;;;;;14.40;8.75;;;;;;;5.53;64.67;94201.56;4143326;28;20073;-84
2021/01/23 05:42:48;;;;;;;12.80;7.95;;;;;;;5.57;64.65;94197.72;4133859;28;20042;-82
2021/01/23 05:45:07;;;;;;;12.80;8.55;;;;;;;5.65;64.40;94200.41;4136223;28;20068;-81
2021/01/23 05:47:25;;;;;;;13.02;8.02;;;;;;;5.70;64.18;94200.81;4135933;28;20061;-84
2021/01/23 05:49:26;;;;;;;12.07;8.48;;;;;;;5.50;64.83;94173.25;4131995;28;20578;-84
2021/01/23 05:51:28;;;;;;;12.77;9.25;;;;;;;5.43;65.13;94169.59;4133199;28;20056;-83
2021/01/23 05:53:30;;;;;;;14.18;8.70;;;;;;;5.56;65.35;94180.47;4133300;28;20049;-84
2021/01/23 05:55:31;;;;;;;12.25;9.35;;;;;;;5.63;64.99;94175.53;4133191;28;20062;-83
2021/01/23 05:57:33;;;;;;;17.42;9.40;;;;;;;5.52;64.88;94171.31;4133320;28;20479;-84
2021/01/23 05:59:35;;;;;;;13.95;8.65;;;;;;;5.63;64.93;94181.53;4129250;28;20054;-70
2021/01/23 06:01:38;;;;;;;14.65;9.75;;;;;;;5.72;64.17;94185.06;4119794;28;20051;-83
2021/01/23 06:03:41;;;;;;;12.48;8.90;;;;;;;5.78;63.99;94176.72;4131678;28;20535;-84
2021/01/23 06:05:43;;;;;;;14.20;8.93;;;;;;;5.56;64.30;94166.69;4116753;28;20576;-84
2021/01/23 06:07:46;;;;;;;15.85;9.60;;;;;;;5.51;65.25;94169.69;4122383;28;20043;-81
2021/01/23 06:09:49;;;;;;;14.60;9.75;;;;;;;5.57;65.23;94169.13;4123727;28;20051;-82
2021/01/23 06:11:50;;;;;;;15.73;9.13;;;;;;;5.67;64.57;94161.28;4132386;28;20054;-83
2021/01/23 06:13:56;;;;;;;11.45;8.77;;;;;;;5.71;64.58;94163.47;4133940;28;20082;-84
2021/01/23 06:15:57;;;;;;;16.42;8.73;;;;;;;5.74;64.61;94162.34;4132267;28;20050;-84
2021/01/23 06:18:04;;;;;;;12.77;8.73;;;;;;;5.79;63.97;94161.94;4133418;28;20081;-83
2021/01/23 06:20:05;;;;;;;13.70;8.20;;;;;;;5.75;64.59;94159.63;4133727;28;20062;-84
2021/01/23 06:22:08;;;;;;;11.88;8.48;;;;;;;5.50;64.91;94149.88;4131478;28;20062;-84
2021/01/23 06:24:13;;;;;;;12.68;9.20;;;;;;;5.46;65.00;94153.69;4132768;28;20050;-84
2021/01/23 06:26:15;;;;;;;12.40;7.68;;;;;;;5.49;65.55;94153.44;4133691;28;20408;-83
2021/01/23 06:28:16;;;;;;;11.48;7.90;;;;;;;5.54;65.25;94162.44;4131510;28;20050;-82
2021/01/23 06:30:28;;;;;;;14.55;8.35;;;;;;;5.59;64.80;94169.78;4132218;28;20069;-82
2021/01/23 06:32:29;;;;;;;14.43;8.77;;;;;;;5.50;64.47;94160.25;4130065;28;20482;-83
2021/01/23 06:34:31;;;;;;;13.05;8.95;;;;;;;5.56;65.36;94157.09;4133341;28;20046;-81
2021/01/23 06:36:32;;;;;;;13.48;8.68;;;;;;;5.62;65.09;94153.13;4134830;28;20046;-82
2021/01/23 06:38:34;;;;;;;14.85;8.50;;;;;;;5.22;66.03;94162.78;4132489;28;20487;-82
2021/01/23 06:40:36;;;;;;;14.15;9.40;;;;;;;5.20;66.89;94175.09;4115896;28;20121;-84
2021/01/23 06:42:39;;;;;;;14.18;9.80;;;;;;;5.21;66.30;94187.13;4126229;28;20050;-85
2021/01/23 06:44:40;;;;;;;15.18;9.48;;;;;;;5.32;66.36;94186.97;4130187;28;20046;-83
2021/01/23 06:46:43;;;;;;;16.45;9.20;;;;;;;5.30;65.28;94181.09;4132579;28;20085;-82
2021/01/23 06:49:00;;;;;;;16.90;9.50;;;;;;;5.26;66.19;94171.13;4131546;28;20050;-84
2021/01/23 06:51:01;;;;;;;16.77;11.40;;;;;;;5.32;66.48;94167.97;4132768;28;20050;-84
2021/01/23 06:53:18;;;;;;;14.43;9.18;;;;;;;5.09;66.12;94176.06;4132769;28;20514;-82
2021/01/23 06:55:41;;;;;;;13.65;8.75;;;;;;;5.23;66.69;94187.81;4136903;28;20561;-85
2021/01/23 06:57:44;;;;;;;14.67;10.20;;;;;;;5.39;66.17;94191.59;4135036;28;20475;-83
2021/01/23 06:59:48;;;;;;;16.17;9.52;;;;;;;5.50;65.33;94201.81;4135490;28;20161;-82
2021/01/23 07:02:08;;;;;;;12.95;9.23;;;;;;;5.60;65.29;94204.41;4126038;28;20104;-81
2021/01/23 07:04:10;;;;;;;14.77;9.85;;;;;;;5.64;64.96;94198.78;4128993;28;20058;-83
2021/01/23 07:06:11;;;;;;;14.27;9.45;;;;;;;5.50;64.71;94175.84;4134946;28;20058;-82
2021/01/23 07:08:25;;;;;;;17.35;10.50;;;;;;;5.52;65.50;94198.13;4134512;28;20089;-84
2021/01/23 07:10:27;;;;;;;16.15;9.13;;;;;;;5.65;65.59;94182.22;4124234;28;20419;-84
2021/01/23 07:12:49;;;;;;;18.08;10.80;;;;;;;5.67;65.20;94195.09;4134482;28;20054;-84
2021/01/23 07:14:50;;;;;;;15.02;9.70;;;;;;;5.72;64.31;94191.09;4127402;28;20133;-85
2021/01/23 07:16:53;;;;;;;15.10;9.57;;;;;;;5.81;64.53;94193.78;4135761;28;20046;-83
2021/01/23 07:18:59;;;;;;;16.27;10.27;;;;;;;5.78;64.53;94187.09;4135521;28;20150;-85
2021/01/23 07:21:02;;;;;;;13.45;9.68;;;;;;;5.88;63.70;94193.09;4130852;28;20046;-83
2021/01/23 07:23:03;;;;;;;16.75;9.93;;;;;;;5.90;63.68;94183.38;4125395;28;20500;-83
2021/01/23 07:25:06;;;;;;;15.25;9.75;;;;;;;5.57;65.12;94171.75;4124409;28;20051;-84
2021/01/23 07:27:08;;;;;;;19.67;13.02;;;;;;;5.52;65.42;94179.94;4133995;28;20042;-82
2021/01/23 07:29:09;;;;;;;16.58;11.30;;;;;;;5.65;64.84;94191.81;4135984;28;20110;-83
2021/01/23 07:31:33;;;;;;;20.38;11.23;;;;;;;5.83;64.47;94195.31;4123826;28;20070;-82
2021/01/23 07:33:35;;;;;;;;;;;;;;;5.81;64.75;94162.59;4116085;28;20113;-71
2021/01/23 07:35:39;;;;;;;16.85;10.70;;;;;;;5.64;65.15;94169.38;4126515;28;20306;-70
2021/01/23 07:37:49;;;;;;;20.67;11.63;;;;;;;5.68;65.31;94176.75;4123368;28;20058;-71
2021/01/23 07:39:50;;;;;;;16.27;11.10;;;;;;;5.89;64.33;94178.31;4129723;28;20058;-71
2021/01/23 07:41:54;;;;;;;20.10;11.50;;;;;;;5.82;64.20;94146.88;4130007;28;20069;-71
2021/01/23 07:43:56;;;;;;;18.38;11.85;;;;;;;5.68;64.86;94160.34;4132030;28;20053;-72
2021/01/23 07:45:57;;;;;;;18.08;11.20;;;;;;;5.86;64.44;94176.00;4129403;28;20046;-70
2021/01/23 07:48:08;;;;;;;19.05;12.00;;;;;;;6.02;64.06;94173.63;4131735;28;20050;-70
2021/01/23 07:50:12;;;;;;;20.13;11.23;;;;;;;6.11;63.60;94164.16;4126634;28;20058;-71
2021/01/23 07:52:15;;;;;;;17.35;11.52;;;;;;;6.20;64.05;94173.69;4131608;28;20137;-83
2021/01/23 07:54:16;;;;;;;17.38;11.18;;;;;;;6.27;63.08;94163.53;4140623;28;20114;-82
2021/01/23 07:56:18;;;;;;;19.42;12.68;;;;;;;6.06;63.66;94140.34;4127353;28;20122;-83
2021/01/23 07:58:19;;;;;;;20.58;12.48;;;;;;;6.03;63.38;94157.06;4139042;28;20054;-82
2021/01/23 08:00:21;;;;;;;24.45;13.23;;;;;;;6.18;63.35;94169.59;4141531;28;20060;-85
2021/01/23 08:02:23;;;;;;;19.80;13.35;;;;;;;6.32;63.62;94175.13;4139732;28;20052;-84
2021/01/23 08:04:35;;;;;;;26.13;14.35;;;;;;;6.03;63.61;94138.88;4138135;28;20087;-81
2021/01/23 08:06:37;;;;;;;23.50;14.05;;;;;;;5.84;64.36;94129.34;4114266;28;20106;-71
2021/01/23 08:08:38;;;;;;;20.70;13.63;;;;;;;6.02;63.72;94163.22;4131660;28;20054;-72
2021/01/23 08:10:40;;;;;;;24.80;15.75;;;;;;;6.17;63.55;94167.94;4115541;28;20055;-71
2021/01/23 08:12:44;;;;;;;26.38;15.95;;;;;;;6.19;63.32;94135.63;4128120;28;20054;-72
2021/01/23 08:14:55;;;;;;;19.45;13.43;;;;;;;6.00;64.11;94149.56;4117010;28;20047;-70
2021/01/23 08:16:56;;;;;;;22.23;14.65;;;;;;;6.08;63.66;94154.03;4122729;28;20042;-70
2021/01/23 08:19:05;;;;;;;25.17;15.27;;;;;;;6.19;63.33;94145.22;4127251;28;20780;-72
2021/01/23 08:21:19;;;;;;;23.52;15.48;;;;;;;6.32;63.43;94159.53;4129270;28;20057;-74
2021/01/23 08:23:31;;;;;;;24.55;15.68;;;;;;;6.50;63.07;94163.94;4123048;28;20042;-72
2021/01/23 08:25:38;;;;;;;28.95;16.23;;;;;;;6.47;63.02;94151.19;4130338;28;20053;-71
2021/01/23 08:27:46;;;;;;;25.85;15.43;;;;;;;6.27;63.48;94132.31;4131177;28;20463;-72
2021/01/23 08:29:50;;;;;;;27.58;15.98;;;;;;;6.36;63.21;94165.22;4128885;28;20531;-71
2021/01/23 08:32:04;;;;;;;24.45;15.50;;;;;;;6.51;63.54;94148.16;4121211;28;20057;-72
2021/01/23 08:34:05;;;;;;;21.00;14.40;;;;;;;6.61;62.36;94152.50;4119679;28;20112;-71
2021/01/23 08:36:07;;;;;;;22.75;13.43;;;;;;;6.61;62.78;94165.50;4128767;28;20054;-71
2021/01/23 08:38:09;;;;;;;26.48;12.82;;;;;;;6.70;62.16;94173.22;4125352;28;20057;-70
2021/01/23 08:40:10;;;;;;;29.02;14.13;;;;;;;6.88;61.46;94165.44;4125236;28;20529;-72
2021/01/23 08:42:12;;;;;;;23.52;13.25;;;;;;;6.88;61.07;94175.00;4121883;28;20072;-71
2021/01/23 08:44:14;;;;;;;24.92;13.07;;;;;;;6.83;61.13;94159.84;4127099;28;20069;-71
2021/01/23 08:46:16;;;;;;;24.13;13.65;;;;;;;6.87;61.78;94149.94;4133255;28;20081;-71
2021/01/23 08:48:17;;;;;;;22.63;14.40;;;;;;;6.96;61.44;94149.84;4122895;28;20488;-72
2021/01/23 08:50:19;;;;;;;22.95;14.55;;;;;;;6.83;61.40;94141.59;4137450;28;20084;-71
2021/01/23 08:52:21;;;;;;;31.17;16.52;;;;;;;6.72;61.93;94163.47;4125112;28;20046;-71
2021/01/23 08:54:22;;;;;;;23.92;14.70;;;;;;;6.91;61.54;94159.09;4126386;28;20054;-70
2021/01/23 08:56:23;;;;;;;29.20;16.40;;;;;;;6.89;61.42;94137.59;4126522;28;20668;-72
2021/01/23 08:58:25;;;;;;;24.92;15.63;;;;;;;6.49;62.91;94131.06;4129252;28;20061;-71
2021/01/23 09:00:26;;;;;;;28.30;16.55;;;;;;;6.82;62.15;94149.56;4118888;28;20507;-72
2021/01/23 09:02:28;;;;;;;28.13;16.15;;;;;;;7.08;61.66;94152.25;4128523;28;20054;-84
2021/01/23 09:04:29;;;;;;;28.88;16.38;;;;;;;7.26;60.82;94147.81;4133952;28;20133;-82
2021/01/23 09:06:30;;;;;;;27.67;16.15;;;;;;;7.19;60.54;94133.75;4133138;28;20062;-82
2021/01/23 09:08:31;;;;;;;24.50;17.02;;;;;;;6.97;61.37;94132.47;4133743;28;20237;-83
2021/01/23 09:10:32;;;;;;;27.98;17.42;;;;;;;7.09;61.32;94148.66;4134316;28;20042;-82
2021/01/23 09:12:34;;;;;;;21.98;16.27;;;;;;;7.28;60.81;94150.25;4133889;28;20046;-85
2021/01/23 09:14:35;;;;;;;30.30;16.67;;;;;;;7.47;60.35;94144.03;4130606;28;20153;-82
2021/01/23 09:16:37;;;;;;;33.85;18.50;;;;;;;7.30;61.10;94135.31;4135959;28;20046;-83
2021/01/23 09:18:38;;;;;;;25.58;15.98;;;;;;;7.28;61.02;94130.22;4132631;28;20042;-83
2021/01/23 09:20:40;;;;;;;30.50;16.70;;;;;;;7.41;60.78;94140.25;4132788;28;20133;-86
2021/01/23 09:22:42;;;;;;;27.23;17.52;;;;;;;7.48;60.15;94137.84;4129703;28;20565;-85
2021/01/23 09:24:43;;;;;;;30.20;17.00;;;;;;;7.57;60.74;94137.75;4127126;28;20057;-83
2021/01/23 09:26:44;;;;;;;31.33;16.00;;;;;;;7.65;59.53;94139.56;4138679;28;20525;-84
2021/01/23 09:28:45;;;;;;;27.42;15.80;;;;;;;7.52;59.45;94137.38;4134538;28;20050;-86
2021/01/23 09:30:47;;;;;;;23.42;14.60;;;;;;;7.56;59.70;94119.66;4133283;28;20439;-84
2021/01/23 09:32:48;;;;;;;25.95;15.30;;;;;;;7.51;59.79;94111.50;4131991;28;20129;-84
2021/01/23 09:34:50;;;;;;;28.15;16.02;;;;;;;7.59;59.65;94114.13;4134172;28;20069;-85
2021/01/23 09:36:51;;;;;;;31.20;16.27;;;;;;;7.66;59.49;94128.19;4129175;28;20134;-85
2021/01/23 09:38:52;;;;;;;22.15;14.57;;;;;;;7.76;59.52;94110.59;4131907;28;20058;-82
2021/01/23 09:40:53;;;;;;;23.38;14.88;;;;;;;7.90;59.29;94122.25;4134234;28;20058;-86